createdAt,value
2023-01-17T00:02:12.920Z,0.60
2023-01-17T00:04:58.294Z,0.40
2023-01-17T00:07:44.460Z,0.55
2023-01-17T00:10:24.888Z,0.52
2023-01-17T00:13:01.042Z,0.60
2023-01-17T00:15:30.942Z,1.23
2023-01-17T00:17:58.830Z,0.52
2023-01-17T00:20:50.117Z,0.80
2023-01-17T00:23:44.535Z,0.88
2023-01-17T00:26:19.539Z,0.63
2023-01-17T00:28:46.747Z,1.10
2023-01-17T00:31:15.660Z,0.80
2023-01-17T00:33:42.431Z,0.45
2023-01-17T00:36:10.524Z,0.57
2023-01-17T00:38:39.391Z,0.43
2023-01-17T00:41:14.364Z,0.60
2023-01-17T00:43:59.862Z,0.60
2023-01-17T00:46:45.285Z,1.35
2023-01-17T00:49:30.612Z,0.50
2023-01-17T00:52:16.187Z,0.47
2023-01-17T00:55:01.660Z,1.02
2023-01-17T00:57:46.679Z,0.82
2023-01-17T01:00:33.153Z,0.30
2023-01-17T01:03:18.659Z,0.93
2023-01-17T01:06:04.005Z,0.40
2023-01-17T01:08:49.701Z,0.80
2023-01-17T01:11:39.533Z,0.50
2023-01-17T01:14:27.355Z,0.47
2023-01-17T01:17:12.714Z,0.50
2023-01-17T01:19:58.201Z,0.50
2023-01-17T01:22:43.767Z,0.55
2023-01-17T01:25:29.161Z,0.40
2023-01-17T01:28:31.207Z,0.82
2023-01-17T01:31:21.114Z,0.70
2023-01-17T01:33:48.264Z,0.52
2023-01-17T01:36:15.772Z,0.50
2023-01-17T01:38:42.823Z,0.43
2023-01-17T01:41:09.566Z,0.77
2023-01-17T01:43:53.280Z,0.80
2023-01-17T01:46:38.990Z,0.88
2023-01-17T01:49:20.924Z,0.65
2023-01-17T01:52:00.099Z,0.50
2023-01-17T01:54:59.814Z,0.60
2023-01-17T01:57:32.743Z,0.50
2023-01-17T02:00:06.101Z,0.57
2023-01-17T02:02:32.954Z,0.47
2023-01-17T02:05:00.821Z,0.40
2023-01-17T02:07:38.870Z,0.50
2023-01-17T02:10:06.214Z,0.60
2023-01-17T02:12:33.130Z,0.90
2023-01-17T02:15:00.573Z,0.70
2023-01-17T02:17:39.178Z,0.50
2023-01-17T02:20:29.249Z,0.50
2023-01-17T02:23:45.291Z,0.47
2023-01-17T02:26:23.835Z,0.40
2023-01-17T02:29:25.273Z,0.63
2023-01-17T02:31:59.022Z,0.50
2023-01-17T02:34:41.640Z,0.47
2023-01-17T02:37:18.855Z,0.40
2023-01-17T02:40:00.667Z,0.95
2023-01-17T02:42:34.875Z,0.50
2023-01-17T02:45:03.491Z,0.57
2023-01-17T02:47:32.149Z,0.50
2023-01-17T02:50:24.263Z,0.60
2023-01-17T02:53:31.521Z,0.85
2023-01-17T02:56:14.640Z,0.60
2023-01-17T02:59:07.622Z,0.60
2023-01-17T03:01:55.700Z,0.80
2023-01-17T03:04:36.019Z,0.98
2023-01-17T03:07:11.841Z,0.40
2023-01-17T03:09:40.828Z,0.80
2023-01-17T03:12:09.803Z,0.65
2023-01-17T03:14:36.556Z,0.75
2023-01-17T03:17:03.465Z,0.45
2023-01-17T03:19:31.424Z,0.45
2023-01-17T03:21:58.303Z,0.70
2023-01-17T03:24:25.023Z,1.17
2023-01-17T03:26:51.812Z,0.70
2023-01-17T03:29:18.687Z,0.98
2023-01-17T03:31:46.671Z,0.73
2023-01-17T03:34:13.442Z,0.57
2023-01-17T03:36:40.167Z,0.70
2023-01-17T03:39:07.015Z,0.47
2023-01-17T03:41:33.778Z,0.63
2023-01-17T03:44:01.033Z,0.60
2023-01-17T03:46:28.891Z,0.80
2023-01-17T03:48:55.642Z,0.57
2023-01-17T03:51:22.403Z,0.55
2023-01-17T03:53:50.164Z,0.60
2023-01-17T03:56:17.132Z,0.40
2023-01-17T03:58:44.079Z,0.70
2023-01-17T04:01:11.295Z,0.70
2023-01-17T04:03:38.399Z,0.55
2023-01-17T04:06:05.452Z,0.50
2023-01-17T04:08:32.234Z,0.52
2023-01-17T04:10:59.191Z,0.50
2023-01-17T04:13:25.941Z,0.65
2023-01-17T04:15:52.741Z,0.52
2023-01-17T04:18:23.179Z,0.50
2023-01-17T04:20:50.902Z,0.43
2023-01-17T04:23:18.088Z,0.50
2023-01-17T04:25:45.007Z,0.57
2023-01-17T04:28:12.173Z,0.75
2023-01-17T04:30:39.481Z,0.95
2023-01-17T04:33:06.367Z,0.50
2023-01-17T04:35:36.275Z,0.60
2023-01-17T04:38:03.334Z,0.88
2023-01-17T04:40:30.216Z,0.75
2023-01-17T04:42:58.019Z,0.52
2023-01-17T04:45:24.979Z,0.60
2023-01-17T04:47:51.806Z,0.70
2023-01-17T04:50:18.946Z,0.88
2023-01-17T04:52:45.747Z,1.75
2023-01-17T04:55:12.488Z,3.20
2023-01-17T04:57:39.234Z,2.78
2023-01-17T05:00:06.898Z,0.80
2023-01-17T05:02:33.764Z,0.70
2023-01-17T05:05:00.631Z,1.02
2023-01-17T05:07:27.409Z,0.50
2023-01-17T05:09:54.204Z,0.68
2023-01-17T05:12:20.929Z,0.90
2023-01-17T05:14:47.658Z,0.98
2023-01-17T05:17:14.393Z,1.30
2023-01-17T05:19:41.198Z,1.52
2023-01-17T05:22:15.234Z,0.93
2023-01-17T05:24:46.424Z,1.13
2023-01-17T05:27:14.775Z,1.35
2023-01-17T05:29:41.790Z,0.90
2023-01-17T05:32:08.619Z,1.05
2023-01-17T05:34:35.422Z,1.15
2023-01-17T05:37:02.328Z,1.45
2023-01-17T05:39:31.036Z,1.10
2023-01-17T05:41:58.719Z,1.08
2023-01-17T05:44:27.583Z,0.85
2023-01-17T05:46:54.894Z,1.10
2023-01-17T05:49:21.892Z,0.95
2023-01-17T05:51:48.684Z,1.00
2023-01-17T05:54:15.591Z,0.73
2023-01-17T05:56:42.384Z,0.75
2023-01-17T05:59:09.178Z,0.85
2023-01-17T06:01:35.919Z,0.55
2023-01-17T06:04:02.671Z,1.50
2023-01-17T06:06:29.442Z,0.98
2023-01-17T06:08:56.205Z,0.88
2023-01-17T06:11:22.990Z,0.90
2023-01-17T06:13:49.820Z,1.63
2023-01-17T06:16:16.656Z,1.42
2023-01-17T06:18:43.416Z,0.70
2023-01-17T06:21:10.409Z,1.92
2023-01-17T06:23:37.337Z,1.55
2023-01-17T06:26:04.908Z,1.30
2023-01-17T06:28:31.762Z,0.70
2023-01-17T06:31:00.018Z,0.90
2023-01-17T06:33:27.151Z,1.02
2023-01-17T06:35:53.956Z,0.88
2023-01-17T06:38:20.948Z,1.17
2023-01-17T06:40:48.140Z,0.80
2023-01-17T06:43:15.187Z,0.70
2023-01-17T06:45:41.929Z,0.65
2023-01-17T06:48:08.747Z,0.90
2023-01-17T06:50:35.652Z,2.40
2023-01-17T06:53:05.488Z,2.83
2023-01-17T06:55:34.877Z,3.03
2023-01-17T06:58:05.078Z,5.85
2023-01-17T07:00:35.225Z,9.05
2023-01-17T07:03:02.191Z,3.03
2023-01-17T07:05:29.481Z,2.28
2023-01-17T07:07:57.680Z,3.28
2023-01-17T07:10:24.399Z,7.43
2023-01-17T07:12:51.592Z,12.82
2023-01-17T07:15:18.523Z,9.68
2023-01-17T07:17:45.557Z,6.35
2023-01-17T07:20:13.606Z,5.75
2023-01-17T07:22:40.418Z,6.53
2023-01-17T07:25:07.680Z,3.08
2023-01-17T07:27:34.434Z,2.95
2023-01-17T07:30:01.180Z,2.95
2023-01-17T07:32:28.517Z,2.10
2023-01-17T07:34:57.660Z,2.90
2023-01-17T07:37:26.024Z,2.08
2023-01-17T07:39:53.887Z,2.78
2023-01-17T07:42:23.210Z,3.10
2023-01-17T07:44:50.793Z,3.15
2023-01-17T07:47:17.707Z,3.70
2023-01-17T07:49:44.583Z,4.28
2023-01-17T07:52:11.446Z,2.78
2023-01-17T07:54:38.506Z,3.03
2023-01-17T07:57:05.325Z,3.35
2023-01-17T07:59:33.883Z,2.65
2023-01-17T08:02:00.972Z,2.17
2023-01-17T08:04:34.833Z,2.33
2023-01-17T08:07:02.155Z,1.80
2023-01-17T08:09:29.033Z,2.38
2023-01-17T08:11:55.778Z,1.42
2023-01-17T08:14:22.536Z,2.33
2023-01-17T08:16:49.301Z,2.08
2023-01-17T08:19:17.216Z,2.05
2023-01-17T08:21:44.257Z,2.10
2023-01-17T08:24:14.911Z,4.13
2023-01-17T08:26:41.810Z,4.80
2023-01-17T08:29:09.428Z,4.85
2023-01-17T08:31:36.784Z,4.10
2023-01-17T08:34:03.694Z,3.25
2023-01-17T08:36:31.416Z,2.22
2023-01-17T08:38:58.991Z,1.55
2023-01-17T08:41:27.897Z,1.83
2023-01-17T08:43:54.777Z,1.90
2023-01-17T08:46:21.668Z,2.78
2023-01-17T08:48:48.436Z,2.67
2023-01-17T08:51:15.152Z,1.88
2023-01-17T08:53:42.540Z,2.25
2023-01-17T08:56:09.651Z,1.35
2023-01-17T08:58:36.568Z,1.55
2023-01-17T09:01:06.215Z,2.65
2023-01-17T09:03:34.636Z,2.13
2023-01-17T09:06:07.661Z,3.25
2023-01-17T09:08:35.163Z,3.10
2023-01-17T09:11:13.323Z,2.88
2023-01-17T09:13:40.798Z,3.08
2023-01-17T09:16:08.565Z,2.80
2023-01-17T09:18:36.562Z,3.03
2023-01-17T09:21:17.912Z,3.33
2023-01-17T09:23:45.445Z,2.85
2023-01-17T09:26:23.204Z,2.83
2023-01-17T09:28:51.030Z,1.80
2023-01-17T09:31:23.138Z,2.35
2023-01-17T09:33:51.999Z,2.28
2023-01-17T09:36:19.321Z,2.17
2023-01-17T09:38:46.619Z,2.28
2023-01-17T09:41:27.777Z,2.67
2023-01-17T09:44:03.511Z,4.05
2023-01-17T09:46:34.999Z,2.60
2023-01-17T09:49:09.055Z,2.15
2023-01-17T09:51:36.752Z,2.00
2023-01-17T09:54:03.813Z,2.58
2023-01-17T09:56:43.005Z,3.58
2023-01-17T10:00:02.933Z,5.93
2023-01-17T10:02:38.656Z,3.15
2023-01-17T10:05:30.143Z,4.38
2023-01-17T10:07:59.714Z,3.97
2023-01-17T10:10:42.040Z,5.50
2023-01-17T10:14:00.509Z,4.82
2023-01-17T10:16:59.001Z,2.20
2023-01-17T10:19:47.532Z,2.58
2023-01-17T10:22:51.507Z,2.45
2023-01-17T10:25:49.209Z,2.25
2023-01-17T10:28:24.071Z,2.03
2023-01-17T10:30:54.910Z,2.08
2023-01-17T10:33:27.731Z,2.38
2023-01-17T10:38:38.804Z,2.63
2023-01-17T10:41:25.800Z,2.50
2023-01-17T10:44:10.912Z,1.98
2023-01-17T10:46:45.678Z,2.42
2023-01-17T10:49:22.723Z,1.83
2023-01-17T10:52:31.785Z,1.98
2023-01-17T10:55:39.291Z,2.88
2023-01-17T10:58:11.756Z,2.38
2023-01-17T11:00:50.674Z,2.95
2023-01-17T11:03:23.965Z,2.38
2023-01-17T11:06:26.358Z,2.85
2023-01-17T11:08:58.322Z,2.88
2023-01-17T11:11:32.110Z,3.27
2023-01-17T11:14:15.087Z,2.90
2023-01-17T11:16:42.462Z,2.30
2023-01-17T11:19:26.764Z,2.45
2023-01-17T11:22:01.755Z,1.42
2023-01-17T11:24:37.771Z,2.67
2023-01-17T11:27:07.237Z,2.10
2023-01-17T11:29:39.569Z,2.45
2023-01-17T11:32:21.458Z,2.33
2023-01-17T11:35:12.808Z,1.95
2023-01-17T11:37:40.987Z,2.25
2023-01-17T11:40:25.755Z,2.55
2023-01-17T11:43:12.337Z,1.30
2023-01-17T11:45:40.704Z,0.82
2023-01-17T11:48:11.186Z,1.30
2023-01-17T11:51:00.050Z,1.50
2023-01-17T11:53:31.296Z,1.92
2023-01-17T11:56:08.578Z,1.02
2023-01-17T11:58:39.997Z,1.90
2023-01-17T12:01:36.635Z,1.17
2023-01-17T12:04:29.838Z,0.82
2023-01-17T12:07:26.452Z,0.80
2023-01-17T12:10:14.838Z,1.52
2023-01-17T12:13:27.011Z,0.93
2023-01-17T12:16:28.094Z,1.05
2023-01-17T12:19:25.527Z,0.70
2023-01-17T12:22:12.527Z,1.02
2023-01-17T12:24:54.407Z,0.73
2023-01-17T12:27:28.731Z,0.73
2023-01-17T12:30:30.905Z,1.05
2023-01-17T12:33:13.420Z,0.73
2023-01-17T12:35:50.768Z,1.50
2023-01-17T12:38:33.590Z,0.70
2023-01-17T12:41:07.570Z,0.80
2023-01-17T12:43:40.233Z,0.93
2023-01-17T12:46:38.572Z,1.10
2023-01-17T12:49:24.406Z,1.50
2023-01-17T12:51:59.425Z,0.93
2023-01-17T12:54:38.315Z,1.25
2023-01-17T12:57:24.502Z,0.75
2023-01-17T13:00:00.568Z,1.00
2023-01-17T13:02:39.255Z,1.00
2023-01-17T13:05:23.831Z,1.08
2023-01-17T13:08:34.366Z,1.17
2023-01-17T13:11:07.409Z,1.00
2023-01-17T13:13:35.809Z,1.13
2023-01-17T13:16:11.990Z,1.63
2023-01-17T13:18:47.389Z,1.85
2023-01-17T13:21:34.230Z,1.25
2023-01-17T13:24:03.581Z,1.65
2023-01-17T13:26:36.563Z,0.80
2023-01-17T13:29:48.100Z,1.00
2023-01-17T13:32:52.452Z,1.35
2023-01-17T13:35:40.748Z,1.08
2023-01-17T13:38:22.263Z,1.30
2023-01-17T13:41:16.801Z,1.65
2023-01-17T13:44:05.387Z,1.15
2023-01-17T13:46:56.112Z,1.60
2023-01-17T13:49:35.233Z,1.33
2023-01-17T13:52:19.865Z,0.75
2023-01-17T13:54:50.417Z,0.98
2023-01-17T13:57:28.538Z,1.90
2023-01-17T14:00:24.359Z,0.80
2023-01-17T14:02:55.209Z,1.13
2023-01-17T14:05:42.242Z,0.82
2023-01-17T14:08:21.927Z,1.63
2023-01-17T14:10:54.931Z,1.33
2023-01-17T14:13:39.336Z,0.95
2023-01-17T14:16:27.036Z,1.20
2023-01-17T14:18:55.495Z,1.58
2023-01-17T14:21:24.417Z,1.00
2023-01-17T14:24:16.583Z,1.42
2023-01-17T14:27:16.442Z,1.13
2023-01-17T14:29:43.996Z,1.13
2023-01-17T14:32:18.255Z,1.50
2023-01-17T14:34:48.929Z,1.33
2023-01-17T14:37:54.437Z,1.55
2023-01-17T14:40:30.645Z,1.40
2023-01-17T14:43:11.419Z,1.33
2023-01-17T14:45:39.515Z,1.10
2023-01-17T14:48:13.719Z,0.95
2023-01-17T14:50:43.358Z,0.88
2023-01-17T14:53:22.225Z,1.60
2023-01-17T14:55:49.887Z,1.05
2023-01-17T14:58:26.047Z,2.22
2023-01-17T15:01:05.054Z,1.35
2023-01-17T15:03:55.493Z,1.10
2023-01-17T15:06:26.432Z,1.13
2023-01-17T15:08:55.966Z,0.93
2023-01-17T15:11:30.228Z,1.08
2023-01-17T15:15:02.788Z,1.45
2023-01-17T15:17:30.031Z,0.77
2023-01-17T15:20:04.132Z,1.65
2023-01-17T15:22:31.205Z,1.17
2023-01-17T15:24:59.039Z,1.40
2023-01-17T15:27:26.281Z,1.63
2023-01-17T15:29:54.144Z,1.17
2023-01-17T15:32:24.461Z,1.08
2023-01-17T15:34:51.910Z,1.17
2023-01-17T15:37:35.341Z,1.40
2023-01-17T15:40:05.873Z,1.13
2023-01-17T15:42:36.708Z,1.50
2023-01-17T15:45:05.981Z,0.98
2023-01-17T15:47:41.268Z,1.17
2023-01-17T15:50:20.310Z,1.30
2023-01-17T15:53:05.932Z,1.08
2023-01-17T15:55:40.368Z,1.00
2023-01-17T15:58:27.319Z,1.27
2023-01-17T16:00:55.146Z,1.98
2023-01-17T16:03:31.011Z,2.42
2023-01-17T16:06:03.024Z,2.00
2023-01-17T16:08:33.885Z,1.95
2023-01-17T16:11:03.737Z,1.33
2023-01-17T16:13:33.588Z,1.95
2023-01-17T16:16:29.531Z,1.90
2023-01-17T16:19:01.262Z,1.20
2023-01-17T16:21:31.139Z,1.20
2023-01-17T16:23:59.873Z,1.52
2023-01-17T16:26:29.161Z,1.88
2023-01-17T16:28:56.148Z,0.90
2023-01-17T16:31:23.146Z,1.15
2023-01-17T16:33:50.970Z,1.40
2023-01-17T16:36:21.307Z,1.00
2023-01-17T16:38:51.297Z,1.10
2023-01-17T16:41:18.929Z,1.50
2023-01-17T16:43:45.664Z,1.30
2023-01-17T16:46:12.589Z,1.15
2023-01-17T16:48:39.358Z,3.10
2023-01-17T16:51:08.211Z,1.20
2023-01-17T16:53:36.735Z,1.98
2023-01-17T16:56:14.646Z,1.42
2023-01-17T16:58:41.782Z,1.40
2023-01-17T17:01:11.711Z,2.35
2023-01-17T17:03:38.577Z,1.90
2023-01-17T17:06:05.552Z,1.85
2023-01-17T17:08:35.336Z,5.60
2023-01-17T17:11:15.027Z,4.55
2023-01-17T17:13:46.919Z,4.30
2023-01-17T17:16:30.089Z,3.05
2023-01-17T17:21:29.552Z,4.32
2023-01-17T17:23:59.475Z,4.13
2023-01-17T17:26:34.568Z,6.80
2023-01-17T17:29:02.365Z,4.38
2023-01-17T17:31:29.320Z,2.58
2023-01-17T17:34:03.175Z,4.43
2023-01-17T17:36:30.883Z,8.15
2023-01-17T17:38:58.648Z,4.65
2023-01-17T17:41:28.698Z,4.03
2023-01-17T17:43:56.238Z,4.10
2023-01-17T17:46:25.258Z,4.80
2023-01-17T17:48:52.014Z,2.40
2023-01-17T17:51:35.934Z,5.85
2023-01-17T17:54:06.485Z,3.83
2023-01-17T17:56:34.131Z,5.53
2023-01-17T17:59:01.987Z,3.47
2023-01-17T18:01:28.998Z,3.78
2023-01-17T18:04:01.379Z,2.85
2023-01-17T18:06:28.151Z,2.92
2023-01-17T18:08:54.864Z,3.85
2023-01-17T18:11:26.159Z,4.10
2023-01-17T18:13:55.105Z,3.00
2023-01-17T18:16:29.502Z,3.90
2023-01-17T18:18:58.830Z,3.10
2023-01-17T18:21:29.429Z,3.22
2023-01-17T18:24:03.691Z,2.28
2023-01-17T18:26:43.897Z,4.03
2023-01-17T18:29:17.788Z,3.63
2023-01-17T18:31:46.827Z,3.28
2023-01-17T18:34:21.345Z,3.35
2023-01-17T18:36:48.158Z,4.35
2023-01-17T18:39:21.592Z,4.53
2023-01-17T18:41:49.477Z,4.30
2023-01-17T18:44:16.828Z,4.65
2023-01-17T18:46:43.766Z,5.38
2023-01-17T18:49:12.830Z,6.00
2023-01-17T18:51:39.616Z,5.35
2023-01-17T18:54:08.894Z,13.80
2023-01-17T18:56:35.950Z,11.93
2023-01-17T18:59:05.896Z,20.00
2023-01-17T19:01:35.910Z,15.55
2023-01-17T19:04:05.560Z,12.13
2023-01-17T19:06:44.453Z,10.07
2023-01-17T19:09:13.917Z,10.13
2023-01-17T19:11:40.923Z,7.13
2023-01-17T19:14:07.758Z,8.85
2023-01-17T19:16:39.459Z,9.18
2023-01-17T19:19:10.793Z,9.65
2023-01-17T19:21:37.814Z,8.38
2023-01-17T19:24:05.046Z,8.02
2023-01-17T19:26:31.842Z,6.25
2023-01-17T19:28:59.087Z,4.20
2023-01-17T19:31:31.554Z,4.70
2023-01-17T19:33:59.548Z,4.55
2023-01-17T19:36:37.532Z,3.40
2023-01-17T19:39:07.366Z,4.47
2023-01-17T19:41:37.934Z,5.53
2023-01-17T19:44:07.948Z,3.42
2023-01-17T19:46:36.400Z,4.53
2023-01-17T19:49:05.461Z,5.55
2023-01-17T19:51:32.318Z,5.25
2023-01-17T19:54:01.380Z,6.05
2023-01-17T19:56:29.140Z,4.00
2023-01-17T19:59:00.769Z,7.72
2023-01-17T20:01:31.216Z,4.37
2023-01-17T20:03:59.165Z,3.90
2023-01-17T20:06:30.314Z,3.92
2023-01-17T20:08:57.695Z,4.90
2023-01-17T20:11:26.695Z,4.18
2023-01-17T20:13:56.726Z,4.57
2023-01-17T20:16:25.918Z,5.75
2023-01-17T20:18:53.028Z,4.70
2023-01-17T20:21:26.320Z,5.22
2023-01-17T20:23:54.991Z,4.30
2023-01-17T20:26:34.563Z,5.10
2023-01-17T20:29:10.148Z,4.47
2023-01-17T20:31:39.250Z,4.10
2023-01-17T20:34:08.364Z,4.25
2023-01-17T20:36:35.336Z,6.82
2023-01-17T20:39:07.835Z,9.93
2023-01-17T20:41:38.203Z,6.13
2023-01-17T20:44:08.080Z,4.13
2023-01-17T20:46:40.763Z,4.88
2023-01-17T20:51:40.181Z,3.75
2023-01-17T20:54:10.080Z,5.57
2023-01-17T20:56:37.940Z,4.07
2023-01-17T20:59:12.466Z,5.78
2023-01-17T21:01:39.618Z,4.75
2023-01-17T21:04:10.221Z,7.63
2023-01-17T21:06:39.739Z,8.45
2023-01-17T21:09:11.557Z,5.57
2023-01-17T21:11:38.568Z,8.75
2023-01-17T21:14:06.574Z,8.98
2023-01-17T21:16:35.061Z,5.18
2023-01-17T21:19:02.009Z,6.50
2023-01-17T21:21:31.884Z,8.00
2023-01-17T21:23:59.567Z,8.20
2023-01-17T21:26:28.261Z,6.00
2023-01-17T21:28:55.772Z,7.57
2023-01-17T21:31:34.871Z,7.88
2023-01-17T21:34:05.341Z,5.90
2023-01-17T21:36:38.810Z,4.97
2023-01-17T21:39:10.955Z,6.03
2023-01-17T21:41:40.441Z,6.75
2023-01-17T21:44:16.904Z,6.93
2023-01-17T21:46:43.705Z,9.10
2023-01-17T21:49:12.045Z,6.72
2023-01-17T21:51:54.536Z,7.68
2023-01-17T21:54:45.792Z,9.85
2023-01-17T21:57:33.970Z,13.57
2023-01-17T22:00:00.744Z,15.05
2023-01-17T22:02:27.559Z,7.93
2023-01-17T22:04:54.772Z,15.63
2023-01-17T22:07:21.558Z,13.38
2023-01-17T22:09:48.369Z,8.85
2023-01-17T22:12:15.091Z,11.27
2023-01-17T22:14:41.823Z,9.25
2023-01-17T22:17:08.733Z,8.13
2023-01-17T22:19:35.494Z,9.02
2023-01-17T22:22:02.664Z,8.13
2023-01-17T22:24:29.390Z,6.65
2023-01-17T22:26:56.102Z,5.95
2023-01-17T22:29:23.028Z,6.03
2023-01-17T22:31:49.736Z,5.60
2023-01-17T22:34:16.807Z,6.10
2023-01-17T22:36:43.552Z,5.85
2023-01-17T22:39:10.474Z,5.75
2023-01-17T22:41:38.405Z,8.10
2023-01-17T22:44:05.619Z,9.15
2023-01-17T22:46:37.246Z,7.70
2023-01-17T22:49:05.956Z,6.13
2023-01-17T22:51:32.720Z,4.43
2023-01-17T22:54:01.215Z,5.55
2023-01-17T22:56:33.307Z,5.45
2023-01-17T22:59:01.163Z,7.65
2023-01-17T23:01:31.140Z,7.20
2023-01-17T23:04:03.939Z,5.80
2023-01-17T23:09:12.451Z,6.57
2023-01-17T23:11:47.213Z,5.75
2023-01-17T23:14:24.193Z,4.57
2023-01-17T23:17:18.789Z,5.65
2023-01-17T23:19:52.597Z,5.80
2023-01-17T23:22:26.997Z,4.10
2023-01-17T23:25:06.092Z,5.07
2023-01-17T23:27:57.027Z,4.10
2023-01-17T23:30:35.537Z,3.50
2023-01-17T23:33:13.359Z,5.28
2023-01-17T23:35:43.760Z,3.25
2023-01-17T23:38:25.952Z,4.28
2023-01-17T23:41:12.602Z,4.75
2023-01-17T23:43:39.307Z,4.53
2023-01-17T23:46:11.650Z,5.65
2023-01-17T23:48:38.420Z,6.65
2023-01-17T23:51:11.006Z,5.85
2023-01-17T23:53:39.004Z,8.32
2023-01-17T23:56:21.523Z,9.43
2023-01-17T23:58:48.270Z,6.07
